Time;durP1;ratioP1;P1;durP2;ratioP2;P2;SDS_P1;SDS_P2;PMS_P1;PMS_P2;Temp;Humidity;BMP_temperature;BMP_pressure;BME280_temperature;BME280_humidity;BME280_pressure;Samples;Min_cycle;Max_cycle;Signal;HPM_P1;HPM_P2
2023/12/08 00:01:53;;;;;;;13.10;11.63;;;0.80;99.90;;;1.40;90.76;97434.38;10372520;28;20313;-66
2023/12/08 00:06:56;;;;;;;13.73;11.57;;;0.90;99.90;;;1.50;90.89;97423.47;10370617;28;20232;-68
2023/12/08 00:11:59;;;;;;;13.57;11.63;;;0.90;99.90;;;1.33;90.18;97417.88;10370376;28;20260;-66
2023/12/08 00:17:04;;;;;;;13.50;12.03;;;0.80;99.90;;;1.37;91.41;97411.47;10374412;28;20214;-67
2023/12/08 00:22:07;;;;;;;12.73;10.83;;;0.80;99.90;;;1.45;87.37;97382.78;10364193;28;20237;-68
2023/12/08 00:27:10;;;;;;;14.00;11.70;;;1.00;99.90;;;1.66;87.13;97375.25;10370111;28;20239;-68
2023/12/08 00:32:16;;;;;;;12.67;11.03;;;1.00;99.90;;;1.54;88.61;97355.84;10367989;28;20768;-67
2023/12/08 00:37:20;;;;;;;12.90;11.13;;;1.00;99.90;;;1.58;90.36;97372.13;10373293;28;20234;-68
2023/12/08 00:42:23;;;;;;;12.17;10.87;;;1.00;99.90;;;1.67;90.50;97355.25;10376065;28;20346;-68
2023/12/08 00:47:28;;;;;;;11.80;10.60;;;1.00;99.90;;;1.67;91.46;97347.69;10378156;28;20234;-66
2023/12/08 00:52:32;;;;;;;14.17;11.93;;;1.00;99.90;;;1.31;92.99;97374.06;10368998;28;20265;-69
2023/12/08 00:57:35;;;;;;;13.60;11.70;;;0.70;99.90;;;1.37;92.60;97372.84;10381292;28;21977;-68
2023/12/08 01:02:39;;;;;;;11.17;9.97;;;0.80;99.90;;;1.36;92.89;97364.41;10363778;28;20229;-67
2023/12/08 01:07:42;;;;;;;14.33;11.93;;;0.80;99.90;;;1.31;91.02;97355.56;10358459;28;20635;-67
2023/12/08 01:12:45;;;;;;;13.80;12.13;;;0.80;99.90;;;1.50;89.39;97365.56;10369268;28;20230;-67
2023/12/08 01:17:50;;;;;;;13.27;11.67;;;1.00;99.90;;;1.60;87.26;97360.50;10365618;28;20245;-67
2023/12/08 01:22:53;;;;;;;13.03;11.73;;;1.10;99.90;;;1.72;85.49;97401.84;10361997;28;20253;-66
2023/12/08 01:27:56;;;;;;;14.43;12.63;;;1.30;99.90;;;2.02;82.56;97379.94;10373305;28;20265;-66
2023/12/08 01:33:01;;;;;;;13.60;12.20;;;1.50;99.90;;;1.95;82.83;97362.56;10374795;28;20586;-68
2023/12/08 01:38:05;;;;;;;14.13;12.20;;;1.50;99.90;;;2.02;80.51;97350.56;10367346;28;20229;-68
2023/12/08 01:43:11;;;;;;;13.70;12.10;;;1.50;99.90;;;2.24;78.49;97310.34;10380190;28;20240;-69
2023/12/08 01:48:16;;;;;;;14.47;12.93;;;1.90;99.90;;;2.12;77.42;97328.63;10370339;28;20725;-68
2023/12/08 01:53:19;;;;;;;14.63;12.40;;;1.90;99.90;;;2.41;77.02;97325.94;10365442;28;20222;-68
2023/12/08 01:58:23;;;;;;;14.43;12.60;;;2.00;99.90;;;2.32;76.67;97297.44;10371164;28;20245;-67
2023/12/08 02:03:29;;;;;;;15.77;13.03;;;1.90;99.90;;;2.18;77.40;97288.81;10372685;28;20238;-67
2023/12/08 02:08:33;;;;;;;14.53;13.00;;;1.90;99.90;;;2.15;77.78;97258.31;10376850;28;20273;-67
2023/12/08 02:13:37;;;;;;;13.20;11.80;;;1.80;99.90;;;2.20;77.43;97275.56;10380644;28;20226;-69
2023/12/08 02:18:42;;;;;;;13.23;11.80;;;1.80;99.90;;;2.32;76.62;97277.25;10370951;28;20226;-68
2023/12/08 02:23:49;;;;;;;13.63;11.63;;;2.00;99.90;;;2.23;78.32;97303.53;10365685;28;20678;-68
2023/12/08 02:28:52;;;;;;;13.27;11.97;;;1.80;99.90;;;2.22;80.04;97291.66;10375614;28;20233;-68
2023/12/08 02:33:57;;;;;;;12.40;11.10;;;1.70;99.90;;;2.38;79.55;97303.00;10372921;28;20721;-70
2023/12/08 02:39:03;;;;;;;14.00;12.50;;;1.80;99.90;;;2.28;83.63;97318.13;10355339;28;20241;-68
2023/12/08 02:44:06;;;;;;;13.60;12.17;;;1.70;99.90;;;2.07;84.93;97323.22;10365147;28;20591;-68
2023/12/08 02:49:09;;;;;;;13.97;12.43;;;1.50;99.90;;;1.90;85.11;97285.72;10373394;28;20245;-68
2023/12/08 02:54:14;;;;;;;12.53;11.23;;;1.40;99.90;;;1.95;86.04;97290.38;10359100;28;20730;-68
2023/12/08 02:59:17;;;;;;;14.47;11.60;;;1.40;99.90;;;1.78;86.34;97261.28;10380623;28;20257;-68
2023/12/08 03:04:21;;;;;;;13.00;11.70;;;1.30;99.90;;;1.91;85.96;97278.25;10377089;28;20237;-67
2023/12/08 03:09:26;;;;;;;13.80;12.40;;;1.40;99.90;;;2.01;88.23;97295.00;10377234;28;20296;-68
2023/12/08 03:14:29;;;;;;;13.23;11.80;;;1.50;99.90;;;2.03;87.01;97276.75;10377202;28;20665;-68
2023/12/08 03:19:32;;;;;;;15.10;12.37;;;1.40;99.90;;;2.01;85.49;97277.38;10364622;28;20236;-68
2023/12/08 03:24:37;;;;;;;13.87;12.30;;;1.40;99.90;;;2.02;85.86;97279.13;10379772;28;20254;-67
2023/12/08 03:29:40;;;;;;;12.57;11.23;;;1.40;99.90;;;2.04;88.80;97265.00;10375642;28;20697;-67
2023/12/08 03:34:44;;;;;;;13.53;12.13;;;1.50;99.90;;;2.01;89.26;97272.34;10375047;28;20872;-68
2023/12/08 03:39:48;;;;;;;13.70;12.17;;;1.40;99.90;;;2.05;90.18;97266.75;10370882;28;20222;-68
2023/12/08 03:44:51;;;;;;;11.60;10.10;;;1.40;99.90;;;1.94;91.07;97252.44;10376527;28;20664;-67
2023/12/08 03:49:54;;;;;;;12.77;11.40;;;1.30;99.90;;;1.85;89.60;97251.69;10383731;28;20587;-68
2023/12/08 03:54:59;;;;;;;15.80;13.90;;;1.20;99.90;;;1.90;83.68;97266.44;10384589;28;20634;-66
2023/12/08 04:00:02;;;;;;;14.30;12.63;;;1.40;99.90;;;2.02;86.23;97261.47;10373065;28;20241;-69
2023/12/08 04:05:07;;;;;;;17.20;14.23;;;1.50;99.90;;;1.99;86.55;97281.41;10383476;28;20284;-67
2023/12/08 04:10:11;;;;;;;15.47;13.27;;;1.40;99.90;;;1.99;87.44;97272.19;10371833;28;20253;-68
2023/12/08 04:15:15;;;;;;;15.67;13.40;;;1.40;99.90;;;2.01;88.09;97270.69;10381079;28;20303;-68
2023/12/08 04:20:19;;;;;;;17.20;14.47;;;1.40;99.90;;;1.98;84.79;97264.53;10378876;28;20238;-67
2023/12/08 04:25:24;;;;;;;16.97;14.30;;;1.50;99.90;;;2.06;84.24;97263.50;10389256;28;20230;-69
2023/12/08 04:30:27;;;;;;;11.77;10.57;;;1.50;99.90;;;2.18;88.09;97274.56;10374659;28;20245;-68
2023/12/08 04:35:30;;;;;;;11.50;10.30;;;1.50;99.90;;;2.08;91.63;97283.78;10373075;28;20226;-67
2023/12/08 04:40:34;;;;;;;11.53;10.33;;;1.40;99.90;;;2.01;93.10;97315.19;10368084;28;21003;-69
2023/12/08 04:45:37;;;;;;;13.77;12.30;;;1.40;99.90;;;2.04;94.42;97325.50;10371404;28;20311;-67
2023/12/08 04:50:40;;;;;;;13.87;12.00;;;1.30;99.90;;;1.91;95.85;97327.78;10364595;28;20230;-67
2023/12/08 04:55:45;;;;;;;15.53;11.47;;;1.30;99.90;;;1.94;95.68;97333.06;10371021;28;20246;-67
2023/12/08 05:00:49;;;;;;;13.77;12.00;;;1.30;99.90;;;1.97;96.46;97330.78;10364147;28;20218;-67
2023/12/08 05:05:53;;;;;;;13.27;11.87;;;1.30;99.90;;;2.01;95.97;97326.13;10376408;28;20325;-67
2023/12/08 05:10:57;;;;;;;13.43;11.70;;;1.30;99.90;;;1.88;96.40;97332.56;10368776;28;20222;-68
2023/12/08 05:16:00;;;;;;;13.73;11.73;;;1.20;99.90;;;1.96;95.68;97321.47;10374964;28;20229;-69
2023/12/08 05:21:04;;;;;;;13.90;12.47;;;1.20;99.90;;;2.11;94.57;97317.66;10364749;28;20223;-67
2023/12/08 05:26:08;;;;;;;15.87;14.03;;;1.40;99.90;;;1.82;95.91;97311.91;10366838;28;20234;-69
2023/12/08 05:31:12;;;;;;;15.90;13.60;;;1.20;99.90;;;1.66;97.72;97305.63;10372359;28;20608;-68
2023/12/08 05:36:15;;;;;;;12.30;11.00;;;1.20;99.90;;;1.76;97.73;97298.06;10364459;28;20273;-69
2023/12/08 05:41:20;;;;;;;13.00;11.60;;;1.20;99.90;;;1.83;98.23;97298.56;10368559;28;20232;-69
2023/12/08 05:46:24;;;;;;;13.30;11.83;;;1.20;99.90;;;1.89;97.39;97301.56;10363872;28;20233;-69
2023/12/08 05:51:27;;;;;;;12.07;10.87;;;1.30;99.90;;;2.08;96.26;97332.53;10373581;28;20313;-68
2023/12/08 05:56:31;;;;;;;18.17;15.07;;;1.40;99.90;;;1.82;97.46;97324.50;10370130;28;20324;-68
2023/12/08 06:01:34;;;;;;;14.63;13.13;;;1.20;99.90;;;1.86;97.67;97313.91;10374782;28;20230;-68
2023/12/08 06:06:37;;;;;;;13.90;12.43;;;1.30;99.90;;;1.90;98.16;97305.88;10384527;28;20230;-68
2023/12/08 06:11:44;;;;;;;18.43;13.70;;;1.30;99.90;;;1.85;98.12;97317.19;10376593;28;20226;-68
2023/12/08 06:16:47;;;;;;;18.00;14.73;;;1.30;99.90;;;1.83;97.60;97306.09;10364206;28;20244;-68
2023/12/08 06:21:50;;;;;;;16.73;14.53;;;1.30;99.90;;;1.83;97.95;97298.56;10361764;28;20317;-68
2023/12/08 06:26:55;;;;;;;14.37;12.47;;;1.40;99.90;;;1.74;98.94;97291.13;10364744;28;20431;-69
2023/12/08 06:31:58;;;;;;;14.03;11.77;;;1.30;99.90;;;1.74;99.61;97309.63;10364239;28;20262;-67
2023/12/08 06:37:01;;;;;;;18.50;15.23;;;1.30;99.90;;;1.69;99.32;97310.03;10373202;28;20356;-69
2023/12/08 06:42:06;;;;;;;18.93;15.27;;;1.30;99.90;;;1.54;100.00;97299.56;10378970;28;20797;-66
2023/12/08 06:47:09;;;;;;;17.97;14.13;;;1.20;99.90;;;1.46;100.00;97280.44;10381843;28;20240;-68
2023/12/08 06:52:13;;;;;;;19.53;15.67;;;1.10;99.90;;;1.70;100.00;97292.53;10374524;28;20761;-71
2023/12/08 06:57:17;;;;;;;19.40;15.33;;;1.20;99.90;;;1.50;100.00;97288.38;10371693;28;20229;-68
2023/12/08 07:02:20;;;;;;;19.37;15.30;;;1.10;99.90;;;1.34;100.00;97291.28;10379370;28;20603;-68
2023/12/08 07:07:23;;;;;;;21.30;16.97;;;1.10;99.90;;;1.48;100.00;97299.06;10374741;28;20478;-68
2023/12/08 07:12:28;;;;;;;23.03;17.43;;;1.10;99.90;;;1.32;100.00;97295.31;10379642;28;20232;-69
2023/12/08 07:17:31;;;;;;;23.60;18.00;;;1.00;99.90;;;1.37;100.00;97300.69;10371207;28;20317;-68
2023/12/08 07:22:34;;;;;;;24.67;18.83;;;1.00;99.90;;;1.39;100.00;97294.16;10377764;28;20325;-67
2023/12/08 07:27:39;;;;;;;25.73;17.97;;;1.00;99.90;;;1.42;100.00;97289.38;10385498;28;20234;-67
2023/12/08 07:32:42;;;;;;;23.73;18.10;;;1.10;99.90;;;1.32;100.00;97285.22;10360285;28;20269;-69
2023/12/08 07:37:45;;;;;;;21.30;16.63;;;1.10;99.90;;;1.19;100.00;97284.09;10364880;28;20234;-68
2023/12/08 07:42:50;;;;;;;22.03;17.53;;;1.00;99.90;;;1.25;100.00;97290.50;10371031;28;20738;-68
2023/12/08 07:47:53;;;;;;;24.83;19.33;;;1.00;99.90;;;1.26;100.00;97296.41;10363525;28;20724;-67
2023/12/08 07:52:56;;;;;;;22.97;17.00;;;1.00;99.90;;;1.46;100.00;97306.53;10376002;28;20593;-68
2023/12/08 07:58:01;;;;;;;27.13;21.13;;;1.20;99.90;;;1.74;100.00;97294.53;10374289;28;20233;-68
2023/12/08 08:03:05;;;;;;;22.30;18.43;;;1.30;99.90;;;1.94;100.00;97308.72;10367578;28;20222;-68
2023/12/08 08:08:08;;;;;;;25.07;20.57;;;1.40;99.90;;;1.87;100.00;97311.53;10374959;28;20233;-66
2023/12/08 08:13:13;;;;;;;29.23;20.23;;;1.40;99.90;;;1.88;100.00;97303.22;10375518;28;20248;-67
2023/12/08 08:18:16;;;;;;;27.53;20.40;;;1.40;99.90;;;2.01;100.00;97305.09;10373698;28;20230;-68
2023/12/08 08:23:20;;;;;;;27.60;20.17;;;1.50;99.90;;;1.84;100.00;97295.28;10364384;28;20234;-69
2023/12/08 08:28:26;;;;;;;28.97;21.83;;;1.50;99.90;;;1.76;100.00;97295.53;10377125;28;20258;-69
2023/12/08 08:33:29;;;;;;;26.77;19.57;;;1.40;99.90;;;1.89;100.00;97304.09;10365978;28;20365;-70
2023/12/08 08:38:32;;;;;;;25.00;19.80;;;1.50;99.90;;;2.01;100.00;97297.53;10372453;28;20234;-69
2023/12/08 08:43:37;;;;;;;23.43;19.60;;;1.60;99.90;;;2.14;100.00;97301.91;10365895;28;20600;-68
2023/12/08 08:48:40;;;;;;;25.33;20.33;;;1.70;99.90;;;2.31;100.00;97310.81;10363375;28;20225;-68
2023/12/08 08:53:43;;;;;;;29.70;22.63;;;1.80;99.90;;;2.35;100.00;97311.19;10372379;28;20887;-68
2023/12/08 08:58:48;;;;;;;25.33;21.40;;;1.80;99.90;;;2.31;100.00;97306.66;10362692;28;20307;-68
2023/12/08 09:03:51;;;;;;;33.10;23.73;;;1.80;99.90;;;2.32;100.00;97312.56;10359653;28;20582;-68
2023/12/08 09:08:54;;;;;;;37.90;27.03;;;1.90;99.90;;;2.40;100.00;97316.56;10366331;28;20372;-69
2023/12/08 09:13:59;;;;;;;36.80;25.13;;;1.90;99.90;;;2.38;100.00;97313.06;10371528;28;20230;-68
2023/12/08 09:19:02;;;;;;;30.37;23.60;;;1.90;99.90;;;2.50;100.00;97318.22;10353736;28;20250;-68
2023/12/08 09:24:06;;;;;;;30.60;22.87;;;2.00;99.90;;;2.48;100.00;97316.44;10361930;28;20557;-67
2023/12/08 09:29:13;;;;;;;32.00;23.10;;;2.00;99.90;;;2.50;100.00;97319.09;10360917;28;20798;-68
2023/12/08 09:34:16;;;;;;;30.00;22.37;;;2.10;99.90;;;2.64;100.00;97333.66;10374960;28;20226;-68
2023/12/08 09:39:20;;;;;;;33.33;25.07;;;2.20;99.90;;;2.73;100.00;97330.09;10360365;28;20288;-68
2023/12/08 09:44:25;;;;;;;29.63;23.27;;;2.20;99.90;;;2.82;100.00;97334.22;10355548;28;20238;-68
2023/12/08 09:49:31;;;;;;;32.00;23.50;;;2.30;99.90;;;2.85;100.00;97339.50;10364669;28;20241;-66
2023/12/08 09:54:35;;;;;;;31.13;24.10;;;2.30;99.90;;;2.86;100.00;97330.28;10364329;28;20232;-68
2023/12/08 09:59:42;;;;;;;33.47;25.00;;;2.40;99.90;;;2.94;100.00;97325.06;10372921;28;20309;-68
2023/12/08 10:04:45;;;;;;;37.10;25.50;;;2.50;99.90;;;3.06;100.00;97335.25;10365951;28;20229;-68
2023/12/08 10:09:49;;;;;;;34.57;26.10;;;2.50;99.90;;;3.21;100.00;97314.47;10364566;28;20261;-69
2023/12/08 10:14:57;;;;;;;35.23;26.50;;;2.60;99.90;;;3.31;100.00;97322.81;10367572;28;20226;-69
2023/12/08 10:20:10;;;;;;;35.23;27.67;;;2.70;99.90;;;3.27;100.00;97319.97;10360644;28;20226;-67
2023/12/08 10:25:16;;;;;;;34.83;27.03;;;2.70;99.90;;;3.30;100.00;97315.16;10363756;28;20225;-70
2023/12/08 10:30:23;;;;;;;32.43;26.00;;;2.80;99.90;;;3.34;100.00;97314.59;10360701;28;20786;-69
2023/12/08 10:35:26;;;;;;;36.50;26.33;;;2.80;99.90;;;3.38;100.00;97317.50;10369408;28;20248;-68
2023/12/08 10:40:30;;;;;;;36.30;27.00;;;2.90;99.90;;;3.41;100.00;97314.31;10364026;28;20319;-69
2023/12/08 10:45:35;;;;;;;35.23;27.23;;;2.90;99.90;;;3.41;100.00;97313.44;10368047;28;20237;-69
2023/12/08 10:50:40;;;;;;;34.67;27.67;;;2.90;99.90;;;3.46;100.00;97323.09;10366298;28;20234;-69
2023/12/08 10:55:43;;;;;;;39.27;27.73;;;3.00;99.90;;;3.51;100.00;97310.81;10365350;28;20713;-69
2023/12/08 11:00:51;;;;;;;37.20;27.93;;;3.00;99.90;;;3.74;100.00;97312.53;10356462;28;20353;-66
2023/12/08 11:06:07;;;;;;;50.33;32.73;;;3.20;99.90;;;3.72;100.00;97309.91;10363830;28;20711;-68
2023/12/08 11:11:12;;;;;;;47.93;31.47;;;3.20;99.90;;;3.74;100.00;97299.91;10351237;28;20768;-67
2023/12/08 11:16:32;;;;;;;42.57;31.03;;;3.20;99.90;;;3.81;100.00;97299.59;10366615;28;20230;-68
2023/12/08 11:21:37;;;;;;;41.23;30.07;;;3.20;99.90;;;3.87;100.00;97305.09;10362611;28;20223;-66
2023/12/08 11:26:50;;;;;;;40.87;30.33;;;3.30;99.90;;;3.98;100.00;97300.84;10359729;28;20341;-67
2023/12/08 11:32:02;;;;;;;41.03;31.67;;;3.40;99.90;;;3.94;100.00;97302.25;10364380;28;20235;-67
2023/12/08 11:37:08;;;;;;;38.27;30.83;;;3.40;99.90;;;3.98;100.00;97299.19;10365037;28;20726;-68
2023/12/08 11:42:15;;;;;;;43.53;31.70;;;3.50;99.90;;;4.04;100.00;97307.22;10361881;28;20230;-68
2023/12/08 11:47:22;;;;;;;36.17;27.57;;;3.50;99.90;;;4.21;100.00;97305.03;10370175;28;20230;-68
2023/12/08 11:52:28;;;;;;;38.23;30.50;;;3.70;99.90;;;4.29;100.00;97298.84;10361833;28;20705;-69
2023/12/08 11:57:33;;;;;;;37.53;27.03;;;3.80;99.90;;;4.38;100.00;97302.06;10373902;28;20234;-67
2023/12/08 12:02:41;;;;;;;32.70;25.70;;;3.90;99.90;;;4.51;100.00;97293.69;10372959;28;20798;-67
2023/12/08 12:07:48;;;;;;;31.17;23.40;;;3.90;99.90;;;4.60;100.00;97298.53;10368507;28;20236;-67
2023/12/08 12:12:56;;;;;;;30.17;22.70;;;4.00;99.90;;;4.60;100.00;97293.47;10366708;28;20667;-68
2023/12/08 12:18:02;;;;;;;30.93;25.27;;;4.10;99.90;;;4.74;100.00;97296.19;10365787;28;20246;-68
2023/12/08 12:23:06;;;;;;;32.83;23.97;;;4.20;99.90;;;4.67;100.00;97283.88;10358360;28;21332;-67
2023/12/08 12:28:09;;;;;;;29.67;22.33;;;4.10;99.90;;;4.82;100.00;97278.13;10366263;28;20266;-68
2023/12/08 12:33:14;;;;;;;31.33;22.53;;;4.30;99.90;;;4.90;100.00;97282.06;10362871;28;20752;-67
2023/12/08 12:38:19;;;;;;;28.43;22.20;;;4.40;99.90;;;4.96;100.00;97272.38;10365208;28;20248;-67
2023/12/08 12:43:23;;;;;;;28.83;23.10;;;4.40;99.90;;;4.99;100.00;97274.22;10367087;28;20221;-67
2023/12/08 12:48:27;;;;;;;26.93;21.07;;;4.50;99.90;;;5.08;100.00;97282.47;10353201;28;20249;-68
2023/12/08 12:53:30;;;;;;;26.70;21.53;;;4.50;99.90;;;5.06;100.00;97273.88;10373276;28;20230;-68
2023/12/08 12:58:33;;;;;;;24.00;19.67;;;4.50;99.90;;;5.14;100.00;97271.09;10375898;28;20416;-68
2023/12/08 13:03:46;;;;;;;27.27;20.70;;;4.60;99.90;;;5.26;100.00;97267.63;10370387;28;20237;-68
2023/12/08 13:08:49;;;;;;;24.03;18.60;;;4.70;99.90;;;5.35;100.00;97271.69;10355817;28;20612;-68
2023/12/08 13:13:52;;;;;;;22.90;18.77;;;4.80;99.90;;;5.40;100.00;97271.97;10356663;28;20222;-67
2023/12/08 13:18:57;;;;;;;24.67;20.70;;;4.80;99.90;;;5.47;100.00;97278.34;10357450;28;20233;-67
2023/12/08 13:24:00;;;;;;;26.10;22.13;;;4.90;99.90;;;5.41;100.00;97284.75;10368502;28;20833;-70
2023/12/08 13:29:03;;;;;;;30.57;22.83;;;4.80;99.90;;;5.46;100.00;97286.69;10365232;28;20230;-67
2023/12/08 13:34:09;;;;;;;28.90;23.57;;;4.90;99.90;;;5.44;100.00;97279.00;10367272;28;20222;-67
2023/12/08 13:39:12;;;;;;;36.40;28.40;;;4.90;99.90;;;5.46;100.00;97286.69;10363645;28;20711;-68
2023/12/08 13:44:15;;;;;;;30.37;25.70;;;4.90;99.90;;;5.47;100.00;97288.47;10368991;28;20230;-67
2023/12/08 13:49:20;;;;;;;35.07;26.77;;;4.90;99.90;;;5.50;100.00;97289.56;10374389;28;20234;-67
2023/12/08 13:54:24;;;;;;;35.50;28.63;;;4.90;99.90;;;5.54;100.00;97295.69;10373099;28;20343;-69
2023/12/08 13:59:27;;;;;;;40.67;35.03;;;5.00;99.90;;;5.56;100.00;97304.31;10363539;28;20234;-68
2023/12/08 14:04:31;;;;;;;32.73;29.27;;;5.00;99.90;;;5.62;100.00;97302.16;10364090;28;20240;-67
2023/12/08 14:09:35;;;;;;;38.57;31.53;;;5.00;99.90;;;5.60;100.00;97307.13;10362043;28;20234;-68
2023/12/08 14:14:41;;;;;;;54.00;38.53;;;5.00;99.90;;;5.61;100.00;97318.16;10365536;28;20230;-68
2023/12/08 14:19:46;;;;;;;48.80;35.80;;;5.00;99.90;;;5.61;100.00;97318.16;10358344;28;20230;-67
2023/12/08 14:24:49;;;;;;;41.80;31.80;;;5.00;99.90;;;5.58;100.00;97328.06;10360703;28;20280;-68
2023/12/08 14:29:52;;;;;;;29.07;25.53;;;5.00;99.90;;;5.56;100.00;97327.13;10361488;28;20728;-68
2023/12/08 14:34:57;;;;;;;36.77;28.80;;;5.00;99.90;;;5.53;100.00;97334.50;10363583;28;20598;-67
2023/12/08 14:40:13;;;;;;;66.60;45.63;;;5.00;99.90;;;5.57;100.00;97344.06;10365138;28;20617;-68
2023/12/08 14:45:16;;;;;;;39.13;34.03;;;5.00;99.90;;;5.59;100.00;97350.13;10368185;28;20320;-68
2023/12/08 14:50:21;;;;;;;37.00;32.67;;;5.00;99.90;;;5.64;100.00;97353.88;10364188;28;20241;-68
2023/12/08 14:55:24;;;;;;;39.90;33.00;;;5.00;99.90;;;5.68;100.00;97362.53;10358211;28;20248;-68
2023/12/08 15:00:27;;;;;;;35.13;29.00;;;5.00;99.90;;;5.62;100.00;97366.41;10361679;28;20226;-68
2023/12/08 15:05:32;;;;;;;38.63;34.40;;;5.00;99.90;;;5.57;100.00;97372.81;10366570;28;20238;-68
2023/12/08 15:10:35;;;;;;;45.63;40.67;;;4.90;99.90;;;5.50;100.00;97383.34;10364846;28;20236;-68
2023/12/08 15:15:38;;;;;;;57.50;48.97;;;4.90;99.90;;;5.50;100.00;97379.94;10361538;28;20617;-68
2023/12/08 15:20:54;;;;;;;44.40;39.60;;;4.90;99.90;;;5.49;100.00;97378.16;10365302;28;20218;-68
2023/12/08 15:25:58;;;;;;;42.27;37.80;;;4.90;99.90;;;5.50;100.00;97390.06;10363878;28;20234;-68
2023/12/08 15:31:01;;;;;;;38.97;34.03;;;4.90;99.90;;;5.47;100.00;97400.00;10371037;28;20225;-68
2023/12/08 15:36:07;;;;;;;73.80;51.50;;;4.90;99.90;;;5.49;100.00;97398.41;10370733;28;20238;-67
2023/12/08 15:41:10;;;;;;;58.63;45.83;;;4.80;99.90;;;5.39;100.00;97399.44;10362949;28;20233;-67
2023/12/08 15:46:13;;;;;;;91.30;59.20;;;4.80;99.90;;;5.35;100.00;97405.97;10364416;28;20241;-66
2023/12/08 15:51:18;;;;;;;72.23;54.67;;;4.80;99.90;;;5.36;100.00;97407.72;10367001;28;20227;-66
2023/12/08 15:56:21;;;;;;;59.23;46.57;;;4.80;99.90;;;5.43;100.00;97416.63;10372216;28;20825;-68
2023/12/08 16:01:24;;;;;;;100.97;66.47;;;4.90;99.90;;;5.47;100.00;97416.06;10368390;28;21699;-66
2023/12/08 16:06:29;;;;;;;50.67;38.67;;;4.80;99.90;;;5.45;100.00;97424.34;10364881;28;20382;-65
2023/12/08 16:11:33;;;;;;;37.13;29.60;;;4.80;99.90;;;5.39;100.00;97422.25;10379270;28;20816;-68
2023/12/08 16:16:36;;;;;;;31.57;27.73;;;4.80;99.90;;;5.39;100.00;97422.25;10369493;28;20245;-68
2023/12/08 16:21:42;;;;;;;32.03;28.60;;;4.80;99.90;;;5.34;100.00;97423.59;10367324;28;20949;-67
2023/12/08 16:26:45;;;;;;;32.67;29.27;;;4.80;99.90;;;5.36;100.00;97442.31;10375971;28;20241;-66
2023/12/08 16:31:48;;;;;;;35.67;29.57;;;4.80;99.90;;;5.37;100.00;97444.94;10375230;28;20359;-67
2023/12/08 16:36:52;;;;;;;32.90;28.97;;;4.80;99.90;;;5.35;100.00;97451.59;10379894;28;20222;-68
2023/12/08 16:41:55;;;;;;;34.43;29.40;;;4.80;99.90;;;5.36;100.00;97448.25;10375659;28;20241;-67
2023/12/08 16:46:59;;;;;;;32.30;27.77;;;4.80;99.90;;;5.35;100.00;97455.75;10377431;28;20237;-68
2023/12/08 16:52:04;;;;;;;36.13;30.37;;;4.80;99.90;;;5.34;100.00;97469.19;10366914;28;20229;-68
2023/12/08 16:57:07;;;;;;;50.60;44.53;;;4.70;99.90;;;5.32;100.00;97469.09;10364279;28;20219;-67
2023/12/08 17:02:10;;;;;;;43.50;37.60;;;4.80;99.90;;;5.31;100.00;97480.00;10363730;28;20225;-68
2023/12/08 17:07:15;;;;;;;49.57;40.67;;;4.80;99.90;;;5.33;100.00;97482.66;10355273;28;20241;-67
2023/12/08 17:12:19;;;;;;;42.77;36.83;;;4.80;99.90;;;5.31;100.00;97480.00;10368028;28;20308;-67
2023/12/08 17:17:22;;;;;;;51.40;40.93;;;4.70;99.90;;;5.33;100.00;97481.00;10368305;28;20345;-67
2023/12/08 17:22:26;;;;;;;33.47;30.17;;;4.80;99.90;;;5.41;100.00;97484.94;10366683;28;20221;-68
2023/12/08 17:27:32;;;;;;;33.20;29.63;;;4.80;99.90;;;5.33;100.00;97483.53;10370733;28;20315;-70
2023/12/08 17:32:35;;;;;;;32.10;28.47;;;4.70;99.90;;;5.33;100.00;97488.59;10354086;28;20226;-69
2023/12/08 17:37:40;;;;;;;43.87;39.13;;;4.70;99.90;;;5.26;100.00;97491.44;10365523;28;20677;-68
2023/12/08 17:42:43;;;;;;;38.00;30.83;;;4.60;99.90;;;5.18;100.00;97502.72;10368711;28;20226;-71
2023/12/08 17:47:48;;;;;;;32.90;29.40;;;4.60;99.90;;;5.18;100.00;97511.19;10363991;28;20256;-67
2023/12/08 17:52:53;;;;;;;29.97;26.80;;;4.60;99.90;;;5.22;100.00;97514.81;10372027;28;20240;-67
2023/12/08 17:57:56;;;;;;;30.20;27.10;;;4.70;99.90;;;5.25;100.00;97525.16;10369038;28;20222;-67
2023/12/08 18:03:00;;;;;;;27.90;25.00;;;4.60;99.90;;;5.17;100.00;97528.78;10361525;28;20222;-67
2023/12/08 18:08:05;;;;;;;29.20;26.10;;;4.60;99.90;;;5.18;100.00;97525.50;10364062;28;20237;-67
2023/12/08 18:13:08;;;;;;;25.47;21.67;;;4.60;99.90;;;5.21;100.00;97533.31;10359993;28;20229;-67
2023/12/08 18:18:12;;;;;;;15.83;13.73;;;4.60;99.90;;;5.28;100.00;97542.25;10357924;28;20348;-67
2023/12/08 18:23:16;;;;;;;20.13;18.13;;;4.60;99.90;;;5.20;100.00;97540.03;10367863;28;20816;-67
2023/12/08 18:28:19;;;;;;;19.20;17.30;;;4.60;99.90;;;5.14;100.00;97541.25;10363964;28;20732;-66
2023/12/08 18:33:42;;;;;;;14.90;13.57;;;4.60;99.90;;;5.13;100.00;97545.44;10368474;28;20234;-68
2023/12/08 18:38:47;;;;;;;21.67;19.30;;;4.60;99.90;;;5.21;100.00;97558.66;10363165;28;20241;-68
2023/12/08 18:43:50;;;;;;;35.20;29.17;;;4.60;99.90;;;5.19;100.00;97552.59;10377538;28;20238;-67
2023/12/08 18:48:56;;;;;;;28.20;24.73;;;4.60;99.90;;;5.22;100.00;97555.34;10371233;28;20230;-67
2023/12/08 18:54:02;;;;;;;20.37;16.70;;;4.60;99.90;;;5.18;100.00;97561.84;10362725;28;20234;-67
2023/12/08 18:59:05;;;;;;;32.33;24.33;;;4.60;99.90;;;5.16;100.00;97570.09;10357464;28;20279;-68
2023/12/08 19:04:09;;;;;;;32.83;25.60;;;4.60;99.90;;;5.10;100.00;97564.59;10360210;28;20225;-67
2023/12/08 19:09:13;;;;;;;25.23;21.30;;;4.60;99.90;;;5.15;100.00;97571.75;10371194;28;20317;-68
2023/12/08 19:14:17;;;;;;;21.97;19.63;;;4.60;99.90;;;5.19;100.00;97573.72;10367627;28;20657;-66
2023/12/08 19:19:20;;;;;;;23.77;21.27;;;4.70;99.90;;;5.25;100.00;97574.97;10364620;28;20238;-67
2023/12/08 19:24:25;;;;;;;34.90;27.33;;;4.70;99.90;;;5.28;100.00;97581.13;10366744;28;20327;-67
2023/12/08 19:29:28;;;;;;;40.27;34.97;;;4.70;99.90;;;5.30;100.00;97584.66;10368067;28;20232;-67
2023/12/08 19:34:33;;;;;;;39.27;29.60;;;4.80;99.90;;;5.30;100.00;97587.19;10369033;28;20218;-67
2023/12/08 19:39:37;;;;;;;38.00;29.37;;;4.70;99.90;;;5.31;100.00;97588.94;10365524;28;20608;-68
2023/12/08 19:44:40;;;;;;;36.97;28.00;;;4.70;99.90;;;5.24;100.00;97594.34;10366774;28;20233;-67
2023/12/08 19:49:43;;;;;;;31.33;26.13;;;4.70;99.90;;;5.22;100.00;97603.47;10371510;28;20253;-67
2023/12/08 19:54:48;;;;;;;41.17;30.90;;;4.70;99.90;;;5.25;100.00;97596.09;10366155;28;20232;-67
2023/12/08 19:59:52;;;;;;;31.70;26.63;;;4.70;99.90;;;5.28;100.00;97600.50;10371037;28;20230;-67
2023/12/08 20:04:55;;;;;;;31.30;27.35;;;4.70;99.90;;;5.29;100.00;97603.13;10365076;28;20230;-67
2023/12/08 20:10:00;;;;;;;31.77;26.70;;;4.80;99.90;;;5.31;100.00;97604.16;10366706;28;20241;-68
2023/12/08 20:15:05;;;;;;;30.90;26.70;;;4.80;99.90;;;5.35;100.00;97603.63;10368308;28;20213;-68
2023/12/08 20:20:09;;;;;;;23.27;20.77;;;4.80;99.90;;;5.33;100.00;97617.81;10362810;28;20226;-69
2023/12/08 20:25:16;;;;;;;17.93;16.10;;;4.70;99.90;;;5.34;100.00;97632.25;10366132;28;20751;-68
2023/12/08 20:30:20;;;;;;;20.37;17.53;;;4.70;99.90;;;5.30;100.00;97639.53;10357325;28;20241;-67
2023/12/08 20:35:24;;;;;;;23.47;19.73;;;4.70;99.90;;;5.25;100.00;97649.31;10402867;28;20220;-67
2023/12/08 20:40:28;;;;;;;24.40;21.67;;;4.70;99.90;;;5.27;100.00;97646.91;10374272;28;20327;-67
2023/12/08 20:45:31;;;;;;;26.10;21.70;;;4.70;99.90;;;5.27;100.00;97657.91;10368103;28;20691;-67
2023/12/08 20:50:35;;;;;;;30.20;24.37;;;4.80;99.90;;;5.31;100.00;97666.63;10374780;28;20231;-68
2023/12/08 20:55:39;;;;;;;32.13;27.23;;;4.80;99.90;;;5.34;100.00;97667.72;10369557;28;20600;-67